WetterOnline ( http://www.wetteronline.de )

Wetter aktuell Bonn

Aktuelles Wetter: Roleber (162m)

6-stündlich | Neueste Meldungen
Ortszeit Temperatur Wetter
Do, 21.03. 1:00 5.0° C leicht bewölkt
Mi, 20.03. 19:00 10.0° C wolkig
Mi, 20.03. 13:00 11.8° C bedeckt
Mi, 20.03. 7:00 0.2° C wolkenlos
Mi, 20.03. 1:00 1.9° C wolkenlos
Di, 19.03. 19:00 6.9° C leicht bewölkt
Di, 19.03. 13:00 8.5° C wolkenlos
Di, 19.03. 7:00 -0.4° C leicht bewölkt
Ortszeit Temperatur Wetter
Do, 21.03. 2:00 4.2° C wolkig
Do, 21.03. 1:50 4.2° C wolkig
Do, 21.03. 1:40 4.2° C wolkig
Do, 21.03. 1:30 3.9° C leicht bewölkt
Do, 21.03. 1:20 3.9° C leicht bewölkt
Do, 21.03. 1:10 4.5° C leicht bewölkt
Do, 21.03. 1:00 5.0° C leicht bewölkt
Do, 21.03. 0:30 5.8° C fast wolkenlos
Do, 21.03. 0:00 6.0° C wolkenlos
Mi, 20.03. 23:30 5.0° C wolkenlos
Mi, 20.03. 23:00 4.9° C fast wolkenlos
Ortszeit Relative Feuchte Sichtweite
Do, 21.03. 1:00 84% 35 km
Mi, 20.03. 19:00 61% 55 km
Mi, 20.03. 13:00 49% 45 km
Mi, 20.03. 7:00 88% 18 km
Mi, 20.03. 1:00 83% 30 km
Di, 19.03. 19:00 58% 50 km
Di, 19.03. 13:00 48% 40 km
Di, 19.03. 7:00 90% 22 km
Ortszeit Relative Feuchte Sichtweite
Do, 21.03. 2:00 87% 23 km
Do, 21.03. 1:50 87% -
Do, 21.03. 1:40 87% -
Do, 21.03. 1:30 88% 25 km
Do, 21.03. 1:20 88% -
Do, 21.03. 1:10 85% -
Do, 21.03. 1:00 84% 35 km
Do, 21.03. 0:30 80% 35 km
Do, 21.03. 0:00 79% 45 km
Mi, 20.03. 23:30 83% 29 km
Mi, 20.03. 23:00 85% 20 km
Ortszeit Niederschlagsmenge Niederschlagsart
Do, 21.03. 1:00 0.0 l/m2 in 6 Std. -
Mi, 20.03. 19:00 0.0 l/m2 in 12 Std. -
Mi, 20.03. 13:00 0.0 l/m2 in 6 Std. -
Mi, 20.03. 7:00 0.0 l/m2 in 12 Std. -
Mi, 20.03. 1:00 0.0 l/m2 in 6 Std. -
Di, 19.03. 19:00 0.0 l/m2 in 12 Std. -
Di, 19.03. 13:00 0.0 l/m2 in 6 Std. -
Di, 19.03. 7:00 0.1 l/m2 in 12 Std. -
Ortszeit Niederschlagsmenge Niederschlagsart
Do, 21.03. 2:00 0.0 l/m2 in 1 Std. -
Do, 21.03. 1:50 keine Meldung -
Do, 21.03. 1:40 keine Meldung -
Do, 21.03. 1:30 0.0 l/m2 in 1 Std. -
Do, 21.03. 1:20 keine Meldung -
Do, 21.03. 1:10 keine Meldung -
Do, 21.03. 1:00 0.0 l/m2 in 1 Std. -
Do, 21.03. 0:30 0.0 l/m2 in 1 Std. -
Do, 21.03. 0:00 0.0 l/m2 in 1 Std. -
Mi, 20.03. 23:30 0.0 l/m2 in 1 Std. -
Mi, 20.03. 23:00 0.0 l/m2 in 1 Std. -
Ortszeit Stärke Spitze Richtung
km/h Bft. km/h Grad Sektor
Do, 21.03. 1:00 4 1 11 180° S
Mi, 20.03. 19:00 4 1 22 300° NW
Mi, 20.03. 13:00 7 2 20 140° SO
Mi, 20.03. 7:00 7 2 14 180° S
Mi, 20.03. 1:00 7 2 11 190° S
Di, 19.03. 19:00 4 1 22 350° N
Di, 19.03. 13:00 7 2 18 310° NW
Di, 19.03. 7:00 6 1 11 220° SW
Ortszeit Stärke Spitze Richtung
km/h Bft. km/h Grad Sektor
Do, 21.03. 2:00 4 1 7 50° NO
Do, 21.03. 1:50 4 1 - 50° NO
Do, 21.03. 1:40 4 1 - 70° O
Do, 21.03. 1:30 4 1 7 90° O
Do, 21.03. 1:20 4 1 - 90° O
Do, 21.03. 1:10 2 1 - 80° O
Do, 21.03. 1:00 4 1 11 180° S
Do, 21.03. 0:30 6 1 9 190° S
Do, 21.03. 0:00 6 1 9 210° SW
Mi, 20.03. 23:30 6 1 7 200° S
Mi, 20.03. 23:00 4 1 7 180° S
Ortszeit Untergrenze Bedeckung Gattung
total tief tief mittel hoch
Do, 21.03. 1:00 10500 m 3/8 0/8 - - -
Mi, 20.03. 19:00 1500 m 7/8 1/8 - - -
Mi, 20.03. 13:00 3900 m 8/8 8/8 - - -
Mi, 20.03. 7:00 - 0/8 0/8 - - -
Mi, 20.03. 1:00 - 0/8 0/8 - - -
Di, 19.03. 19:00 2100 m 2/8 2/8 - - -
Di, 19.03. 13:00 - 0/8 0/8 - - -
Di, 19.03. 7:00 840 m 3/8 3/8 - - -
Ortszeit Bedeckungsgrad in Achtel und Wolkenuntergrenze
Do, 21.03. 2:00 1(9000m) 8(10500m) 8(12000m)
Do, 21.03. 1:50 1(9000m) 8(10500m) 8(12000m)
Do, 21.03. 1:40 3(9000m) 7(10500m) 7(12000m)
Do, 21.03. 1:30 3(9000m) 5(10500m) 6(12000m)
Do, 21.03. 1:20 3(9000m) 5(10500m) 6(12000m)
Do, 21.03. 1:10 5(10500m) 6(12000m)
Do, 21.03. 1:00 3(10500m) 3(12000m)
Do, 21.03. 0:30 2(10500m) 2(12000m)
Do, 21.03. 0:00 keine Wolken
Mi, 20.03. 23:30 keine Wolken
Mi, 20.03. 23:00 1(10500m)
Ortszeit Luftdruck NN (hPa) Tendenz (hPa in 3 Std.)
Do, 21.03. 1:00 1035 - 0,1
Mi, 20.03. 19:00 1034 + 0,2
Mi, 20.03. 13:00 1034 - 0,1
Mi, 20.03. 7:00 1034 + 0,6
Mi, 20.03. 1:00 1033 + 1,0
Di, 19.03. 19:00 1030 + 0,9
Di, 19.03. 13:00 1030 + 0,8
Di, 19.03. 7:00 1028 + 1,5
Ortszeit Luftdruck NN (hPa) Tendenz (hPa in 3 Std.)
Do, 21.03. 2:00 1036 - 0,1
Do, 21.03. 1:50 1036 keine Meldung
Do, 21.03. 1:40 1036 keine Meldung
Do, 21.03. 1:30 1036 - 0,1
Do, 21.03. 1:20 1036 keine Meldung
Do, 21.03. 1:10 1036 keine Meldung
Do, 21.03. 1:00 1035 - 0,1
Do, 21.03. 0:30 1035 0,0
Do, 21.03. 0:00 1035 + 0,1
Mi, 20.03. 23:30 1036 + 0,3
Mi, 20.03. 23:00 1036 + 0,5
Ortszeit Schneehöhe (cm)
Do, 21.03. 1:00 0
Mi, 20.03. 19:00 0
Mi, 20.03. 13:00 0
Mi, 20.03. 7:00 0
Mi, 20.03. 1:00 0
Di, 19.03. 19:00 0
Di, 19.03. 13:00 0
Di, 19.03. 7:00 0
Ortszeit Schneehöhe (cm)
Do, 21.03. 2:00 0
Do, 21.03. 1:50 0
Do, 21.03. 1:40 0
Do, 21.03. 1:30 0
Do, 21.03. 1:20 0
Do, 21.03. 1:10 0
Do, 21.03. 1:00 0
Do, 21.03. 0:30 0
Do, 21.03. 0:00 0
Mi, 20.03. 23:30 0
Mi, 20.03. 23:00 0
Link zu dieser Seite / Seite empfehlen

Das Wetter in ...